Time;durP1;ratioP1;P1;durP2;ratioP2;P2;SDS_P1;SDS_P2;PMS_P1;PMS_P2;Temp;Humidity;BMP_temperature;BMP_pressure;BME280_temperature;BME280_humidity;BME280_pressure;Samples;Min_cycle;Max_cycle;Signal;HPM_P1;HPM_P2
2023/03/28 00:00:29;;;;;;;0.40;0.40;;;;;;;6.22;100.00;100736.09;5001620;28;20029;-87
2023/03/28 00:02:55;;;;;;;0.40;0.40;;;;;;;6.26;100.00;100730.31;5033445;28;20387;-92
2023/03/28 00:05:22;;;;;;;0.40;0.40;;;;;;;6.24;100.00;100740.28;5001682;28;20045;-87
2023/03/28 00:07:50;;;;;;;0.40;0.40;;;;;;;6.23;100.00;100733.28;5016808;28;20136;-88
2023/03/28 00:10:15;;;;;;;0.40;0.40;;;;;;;6.26;100.00;100724.13;5000488;28;20033;-89
2023/03/28 00:12:42;;;;;;;0.40;0.40;;;;;;;6.22;100.00;100725.41;5032670;28;20448;-88
2023/03/28 00:15:08;;;;;;;0.40;0.40;;;;;;;6.21;100.00;100716.56;5015765;28;20038;-87
2023/03/28 00:17:34;;;;;;;0.35;0.35;;;;;;;6.24;100.00;100718.94;4999973;28;20021;-89
2023/03/28 00:20:01;;;;;;;0.40;0.40;;;;;;;6.27;100.00;100713.31;5037256;28;20388;-88
2023/03/28 00:22:29;;;;;;;0.40;0.40;;;;;;;6.28;100.00;100712.31;5036753;28;20033;-88
2023/03/28 00:24:58;;;;;;;0.40;0.40;;;;;;;6.29;100.00;100724.66;5020510;28;20033;-87
2023/03/28 00:27:24;;;;;;;0.40;0.40;;;;;;;6.31;100.00;100716.53;5037837;28;20033;-87
2023/03/28 00:29:50;;;;;;;0.40;0.40;;;;;;;6.35;100.00;100705.41;5003821;28;20490;-93
2023/03/28 00:32:16;;;;;;;0.40;0.40;;;;;;;6.34;100.00;100705.53;5004377;28;20098;-90
2023/03/28 00:34:42;;;;;;;0.50;0.45;;;;;;;6.35;100.00;100699.19;5021165;28;20460;-90
2023/03/28 00:37:09;;;;;;;0.40;0.40;;;;;;;6.32;100.00;100678.97;5036723;28;20571;-90
2023/03/28 00:39:36;;;;;;;0.40;0.40;;;;;;;6.34;100.00;100668.16;5036699;28;20381;-90
2023/03/28 00:42:02;;;;;;;0.40;0.40;;;;;;;6.31;100.00;100666.63;4987964;28;20065;-90
2023/03/28 00:44:40;;;;;;;0.40;0.40;;;;;;;6.33;100.00;100664.66;5002694;28;20579;-89
2023/03/28 00:47:17;;;;;;;0.40;0.40;;;;;;;6.31;100.00;100641.75;5037952;28;20029;-89
2023/03/28 00:49:45;;;;;;;0.40;0.40;;;;;;;6.33;100.00;100637.94;5019883;28;20029;-92
2023/03/28 00:52:12;;;;;;;0.50;0.50;;;;;;;6.38;100.00;100641.00;5036365;28;20037;-90
2023/03/28 00:54:39;;;;;;;0.40;0.40;;;;;;;6.42;100.00;100641.53;5004374;28;20094;-88
2023/03/28 00:57:06;;;;;;;0.40;0.40;;;;;;;6.41;100.00;100639.03;5036646;28;20037;-90
2023/03/28 00:59:33;;;;;;;0.40;0.40;;;;;;;6.42;100.00;100633.50;5020533;28;20033;-89
2023/03/28 01:01:59;;;;;;;0.40;0.40;;;;;;;6.41;100.00;100623.84;5037286;28;20037;-89
2023/03/28 01:04:35;;;;;;;0.40;0.40;;;;;;;6.42;100.00;100628.16;5035763;28;20025;-90
2023/03/28 01:07:02;;;;;;;0.40;0.40;;;;;;;6.30;100.00;100602.69;5020091;28;20045;-88
2023/03/28 01:09:27;;;;;;;0.40;0.40;;;;;;;6.46;100.00;100631.41;5020028;28;20060;-88
2023/03/28 01:11:56;;;;;;;0.40;0.40;;;;;;;6.46;100.00;100624.22;5036823;28;20061;-88
2023/03/28 01:14:23;;;;;;;0.40;0.40;;;;;;;6.46;100.00;100608.19;5019504;28;20032;-90
2023/03/28 01:16:50;;;;;;;0.40;0.40;;;;;;;6.45;100.00;100608.34;5019076;28;20033;-88
2023/03/28 01:19:41;;;;;;;0.40;0.40;;;;;;;6.49;100.00;100609.72;5035666;28;20033;-89
2023/03/28 01:22:41;;;;;;;0.50;0.50;;;;;;;6.49;100.00;100604.38;5036310;28;20079;-90
2023/03/28 01:25:27;;;;;;;0.40;0.40;;;;;;;6.53;100.00;100603.06;5035238;28;20021;-87
2023/03/28 01:28:04;;;;;;;0.40;0.40;;;;;;;6.55;100.00;100614.44;5003097;28;20037;-89
2023/03/28 01:30:37;;;;;;;0.40;0.40;;;;;;;6.56;100.00;100603.63;5018493;28;20064;-91
2023/03/28 01:33:49;;;;;;;0.40;0.40;;;;;;;6.56;100.00;100594.75;5002629;28;20063;-90
2023/03/28 01:36:33;;;;;;;0.30;0.30;;;;;;;6.58;100.00;100588.25;5017146;28;20030;-86
2023/03/28 01:39:13;;;;;;;0.40;0.40;;;;;;;6.58;100.00;100584.75;5036022;28;20061;-88
2023/03/28 01:41:53;;;;;;;0.50;0.50;;;;;;;6.56;100.00;100579.56;5019371;28;20056;-87
2023/03/28 01:44:45;;;;;;;0.40;0.40;;;;;;;6.57;100.00;100570.56;5003010;28;20041;-86
2023/03/28 01:47:19;;;;;;;0.40;0.40;;;;;;;6.55;100.00;100567.19;5032251;28;20104;-88
2023/03/28 01:49:54;;;;;;;0.40;0.40;;;;;;;6.57;100.00;100567.88;5002966;28;20041;-91
2023/03/28 01:52:40;;;;;;;0.40;0.40;;;;;;;6.56;100.00;100552.00;5019053;28;20131;-89
2023/03/28 01:55:29;;;;;;;0.40;0.40;;;;;;;6.44;100.00;100521.19;4987481;28;20045;-88
2023/03/28 01:58:00;;;;;;;0.40;0.40;;;;;;;6.49;100.00;100524.25;5003677;28;20057;-89
2023/03/28 02:00:30;;;;;;;0.40;0.40;;;;;;;6.57;100.00;100543.00;5035044;28;20498;-89
2023/03/28 02:03:05;;;;;;;0.40;0.40;;;;;;;6.60;100.00;100532.00;5006706;28;20061;-89
2023/03/28 02:05:32;;;;;;;0.40;0.40;;;;;;;6.58;100.00;100524.13;5013719;28;20110;-86
2023/03/28 02:08:00;;;;;;;0.40;0.40;;;;;;;6.62;100.00;100521.19;5027581;28;20068;-91
2023/03/28 02:10:27;;;;;;;0.40;0.40;;;;;;;6.60;100.00;100508.78;5038362;28;20116;-92
2023/03/28 02:13:03;;;;;;;0.40;0.40;;;;;;;6.65;100.00;100510.19;5001952;28;20041;-87
2023/03/28 02:15:29;;;;;;;0.40;0.40;;;;;;;6.68;100.00;100508.00;5001675;28;20037;-91
2023/03/28 02:18:00;;;;;;;0.50;0.50;;;;;;;6.70;100.00;100494.50;5034649;28;20025;-88
2023/03/28 02:20:29;;;;;;;0.40;0.40;;;;;;;6.70;100.00;100489.16;5018358;28;20033;-87
2023/03/28 02:23:00;;;;;;;0.40;0.40;;;;;;;6.72;100.00;100480.00;5018775;28;20034;-91
2023/03/28 02:25:26;;;;;;;0.40;0.40;;;;;;;6.73;100.00;100476.31;5018296;28;20033;-93
2023/03/28 02:27:55;;;;;;;0.30;0.30;;;;;;;6.70;100.00;100451.75;5034241;28;20424;-90
2023/03/28 02:30:22;;;;;;;0.40;0.40;;;;;;;6.68;100.00;100445.72;5002131;28;20044;-89
2023/03/28 02:32:49;;;;;;;0.40;0.40;;;;;;;6.77;100.00;100450.97;5017772;28;20369;-92
2023/03/28 02:35:17;;;;;;;0.40;0.40;;;;;;;6.70;100.00;100428.53;5033817;28;20038;-89
2023/03/28 02:37:53;;;;;;;0.40;0.40;;;;;;;6.81;100.00;100438.94;5001556;28;20373;-88
2023/03/28 02:40:28;;;;;;;0.40;0.40;;;;;;;6.84;100.00;100437.78;5018047;28;20033;-89
2023/03/28 02:42:53;;;;;;;0.40;0.40;;;;;;;6.74;100.00;100407.69;5033316;28;20505;-92
2023/03/28 02:45:45;;;;;;;0.40;0.40;;;;;;;6.87;100.00;100423.28;5035567;28;20025;-87
2023/03/28 02:48:13;;;;;;;0.40;0.40;;;;;;;6.90;100.00;100430.97;5017681;28;20108;-93
2023/03/28 02:50:48;;;;;;;0.40;0.40;;;;;;;6.86;100.00;100409.09;5034385;28;20395;-88
2023/03/28 02:53:27;;;;;;;0.40;0.40;;;;;;;6.92;100.00;100403.09;5018406;28;20033;-89
2023/03/28 02:56:03;;;;;;;0.40;0.40;;;;;;;6.93;100.00;100409.25;5035145;28;20487;-87
2023/03/28 02:58:46;;;;;;;0.40;0.40;;;;;;;6.94;100.00;100402.94;5017662;28;20037;-93
2023/03/28 03:01:13;;;;;;;0.50;0.50;;;;;;;6.92;100.00;100372.84;5017995;28;20026;-86
2023/03/28 03:03:39;;;;;;;0.40;0.40;;;;;;;6.94;100.00;100394.91;5033644;28;20044;-88
2023/03/28 03:06:05;;;;;;;0.40;0.40;;;;;;;6.87;100.00;100373.34;5033889;28;20472;-92
2023/03/28 03:08:31;;;;;;;0.50;0.50;;;;;;;6.92;100.00;100379.03;4985201;28;20056;-90
2023/03/28 03:11:06;;;;;;;0.40;0.40;;;;;;;6.93;100.00;100372.72;5017215;28;20034;-90
2023/03/28 03:13:32;;;;;;;0.50;0.50;;;;;;;6.93;100.00;100367.38;5035694;28;20090;-88
2023/03/28 03:15:57;;;;;;;0.40;0.40;;;;;;;6.94;100.00;100361.00;5036856;28;20029;-91
2023/03/28 03:18:23;;;;;;;0.30;0.30;;;;;;;6.81;100.00;100337.41;5035488;28;20022;-90
2023/03/28 03:20:51;;;;;;;0.40;0.40;;;;;;;6.94;100.00;100344.13;5035356;28;20079;-87
2023/03/28 03:23:17;;;;;;;0.40;0.40;;;;;;;7.00;100.00;100325.59;5034611;28;20026;-92
2023/03/28 03:25:44;;;;;;;0.40;0.40;;;;;;;6.99;100.00;100320.44;5017155;28;20036;-88
2023/03/28 03:28:10;;;;;;;0.40;0.40;;;;;;;6.99;100.00;100315.09;5033679;28;20030;-90
2023/03/28 03:30:36;;;;;;;0.40;0.40;;;;;;;6.93;100.00;100305.03;5017092;28;20112;-87
2023/03/28 03:33:01;;;;;;;0.40;0.40;;;;;;;6.99;100.00;100307.06;5016789;28;20021;-87
2023/03/28 03:35:33;;;;;;;0.30;0.30;;;;;;;7.00;100.00;100300.72;5033315;28;20030;-90
2023/03/28 03:37:59;;;;;;;0.40;0.40;;;;;;;6.79;100.00;100261.91;5033562;28;20029;-91
2023/03/28 03:40:25;;;;;;;0.40;0.40;;;;;;;6.93;100.00;100280.97;5000781;28;20037;-93
2023/03/28 03:42:51;;;;;;;0.40;0.40;;;;;;;6.98;100.00;100282.16;5033826;28;20119;-92
2023/03/28 03:45:17;;;;;;;0.40;0.40;;;;;;;6.98;100.00;100284.81;5033837;28;20473;-92
2023/03/28 03:47:42;;;;;;;0.40;0.40;;;;;;;6.99;100.00;100278.50;5034936;28;20538;-91
2023/03/28 03:50:09;;;;;;;0.50;0.50;;;;;;;6.93;100.00;100255.09;5044854;28;20014;-85
2023/03/28 03:52:35;;;;;;;0.40;0.40;;;;;;;7.01;100.00;100268.47;5000959;28;20038;-91
2023/03/28 03:55:01;;;;;;;0.40;0.40;;;;;;;7.01;100.00;100259.59;5016310;28;20079;-92
2023/03/28 03:57:27;;;;;;;0.40;0.40;;;;;;;7.04;100.00;100245.94;5033066;28;20034;-93
2023/03/28 03:59:53;;;;;;;0.40;0.40;;;;;;;7.12;100.00;100231.72;5033390;28;20036;-86
2023/03/28 04:02:18;;;;;;;0.40;0.40;;;;;;;7.26;100.00;100215.84;5000875;28;20037;-85
2023/03/28 04:04:44;;;;;;;0.40;0.40;;;;;;;7.29;100.00;100198.63;5034241;28;20079;-90
2023/03/28 04:07:11;;;;;;;0.40;0.40;;;;;;;7.25;100.00;100181.25;5035802;28;20060;-86
2023/03/28 04:09:37;;;;;;;0.40;0.40;;;;;;;7.35;100.00;100213.16;4985557;28;20133;-87
2023/03/28 04:12:04;;;;;;;0.40;0.40;;;;;;;7.31;100.00;100199.31;5017642;28;20088;-85
2023/03/28 04:14:30;;;;;;;0.40;0.40;;;;;;;7.46;100.00;100213.69;5019008;28;20037;-87
2023/03/28 04:16:56;;;;;;;0.40;0.40;;;;;;;7.46;100.00;100207.47;5019069;28;20153;-88
2023/03/28 04:19:24;;;;;;;0.40;0.40;;;;;;;7.52;100.00;100206.81;5017645;28;20029;-90
2023/03/28 04:21:51;;;;;;;0.40;0.40;;;;;;;7.51;100.00;100191.75;5002163;28;20471;-90
2023/03/28 04:24:23;;;;;;;0.45;0.45;;;;;;;7.57;100.00;100184.88;5034584;28;20088;-89
2023/03/28 04:26:54;;;;;;;0.40;0.40;;;;;;;7.64;100.00;100167.97;5033330;28;20069;-89
2023/03/28 04:29:29;;;;;;;0.40;0.40;;;;;;;7.80;100.00;100177.78;5033145;28;20112;-86
2023/03/28 04:31:59;;;;;;;0.40;0.40;;;;;;;7.84;100.00;100179.13;5001239;28;20122;-85
2023/03/28 04:34:28;;;;;;;0.30;0.30;;;;;;;7.87;100.00;100173.44;5001264;28;20132;-88
2023/03/28 04:37:00;;;;;;;0.50;0.50;;;;;;;7.90;100.00;100177.59;5016826;28;20029;-85
2023/03/28 04:39:30;;;;;;;0.40;0.40;;;;;;;7.98;100.00;100166.88;5016274;28;20369;-89
2023/03/28 04:42:00;;;;;;;0.40;0.40;;;;;;;8.04;100.00;100160.81;5015790;28;20022;-86
2023/03/28 04:44:28;;;;;;;0.40;0.40;;;;;;;8.00;100.00;100148.78;5016420;28;20025;-87
2023/03/28 04:46:55;;;;;;;0.40;0.40;;;;;;;8.10;100.00;100162.81;5016253;28;20033;-85
2023/03/28 04:49:21;;;;;;;0.40;0.40;;;;;;;8.15;100.00;100157.75;5015976;28;20415;-93
2023/03/28 04:51:47;;;;;;;0.40;0.40;;;;;;;8.19;100.00;100138.66;4984040;28;20120;-90
2023/03/28 04:54:13;;;;;;;0.40;0.40;;;;;;;8.22;100.00;100149.03;5000403;28;20044;-91
2023/03/28 04:56:39;;;;;;;0.40;0.40;;;;;;;8.26;100.00;100129.75;5032206;28;20021;-88
2023/03/28 04:59:05;;;;;;;0.55;0.55;;;;;;;8.29;100.00;100128.56;5016556;28;20034;-88
2023/03/28 05:01:31;;;;;;;0.40;0.40;;;;;;;8.38;100.00;100138.22;5032745;28;20029;-85
2023/03/28 05:03:57;;;;;;;0.40;0.40;;;;;;;8.31;100.00;100122.03;5000322;28;20038;-89
2023/03/28 05:06:24;;;;;;;0.40;0.40;;;;;;;8.38;100.00;100127.50;5036097;28;20078;-90
2023/03/28 05:08:50;;;;;;;0.40;0.40;;;;;;;8.14;100.00;100101.69;5042108;28;20037;-87
2023/03/28 05:11:16;;;;;;;0.40;0.40;;;;;;;8.27;100.00;100104.63;5040543;28;20044;-87
2023/03/28 05:13:44;;;;;;;0.40;0.40;;;;;;;8.32;100.00;100128.22;5040168;28;20384;-86
2023/03/28 05:16:10;;;;;;;0.40;0.40;;;;;;;8.30;100.00;100133.72;5020285;28;20048;-90
2023/03/28 05:18:35;;;;;;;0.40;0.40;;;;;;;8.32;100.00;100141.59;5036968;28;20029;-87
2023/03/28 05:21:01;;;;;;;0.40;0.40;;;;;;;8.30;100.00;100133.72;5036788;28;20468;-84
2023/03/28 05:23:26;;;;;;;0.40;0.40;;;;;;;8.31;100.00;100132.75;5037100;28;20059;-90
2023/03/28 05:25:53;;;;;;;0.40;0.40;;;;;;;8.32;100.00;100128.22;5036613;28;20104;-91
2023/03/28 05:28:19;;;;;;;0.40;0.40;;;;;;;8.23;100.00;100126.56;5035489;28;20386;-87
2023/03/28 05:30:45;;;;;;;0.38;0.38;;;;;;;8.30;100.00;100131.06;5035319;28;20547;-90
2023/03/28 05:33:11;;;;;;;0.40;0.40;;;;;;;8.28;100.00;100125.06;5035533;28;20116;-86
2023/03/28 05:35:38;;;;;;;0.50;0.50;;;;;;;8.35;100.00;100138.56;5003053;28;20132;-87
2023/03/28 05:38:04;;;;;;;0.30;0.30;;;;;;;8.29;100.00;100120.53;5019266;28;20033;-89
2023/03/28 05:40:30;;;;;;;0.40;0.40;;;;;;;8.32;100.00;100129.03;5036699;28;20506;-85
2023/03/28 05:42:55;;;;;;;0.40;0.40;;;;;;;8.25;100.00;100114.66;5035534;28;20029;-91
2023/03/28 05:45:21;;;;;;;0.40;0.40;;;;;;;8.23;100.00;100119.41;5035317;28;20029;-87
2023/03/28 05:47:50;;;;;;;0.40;0.40;;;;;;;8.36;100.00;100118.78;5035243;28;20057;-91
2023/03/28 05:50:16;;;;;;;0.40;0.40;;;;;;;8.32;100.00;100122.84;5002647;28;20112;-89
2023/03/28 05:52:41;;;;;;;0.50;0.50;;;;;;;8.32;100.00;100112.13;5018707;28;20053;-88
2023/03/28 05:55:08;;;;;;;0.40;0.40;;;;;;;8.36;100.00;100119.66;5035355;28;20029;-87
2023/03/28 05:57:34;;;;;;;0.40;0.40;;;;;;;8.38;100.00;100120.28;4986347;28;20040;-86
2023/03/28 06:00:02;;;;;;;0.40;0.40;;;;;;;8.35;100.00;100104.56;5035085;28;20038;-85
2023/03/28 06:02:28;;;;;;;0.38;0.38;;;;;;;8.37;100.00;100110.59;5018882;28;20052;-88
2023/03/28 06:04:54;;;;;;;0.40;0.40;;;;;;;8.26;100.00;100091.44;5034580;28;20468;-88
2023/03/28 06:07:20;;;;;;;0.43;0.43;;;;;;;8.40;100.00;100108.59;5036122;28;20392;-91
2023/03/28 06:09:45;;;;;;;0.40;0.40;;;;;;;8.32;100.00;100096.06;5035249;28;20033;-89
2023/03/28 06:12:11;;;;;;;0.40;0.40;;;;;;;8.36;100.00;100087.50;5028620;28;20056;-85
2023/03/28 06:14:37;;;;;;;0.40;0.40;;;;;;;8.43;100.00;100097.53;5043234;28;20034;-85
2023/03/28 06:17:03;;;;;;;0.40;0.40;;;;;;;8.48;100.00;100089.78;5034179;28;20025;-94
2023/03/28 06:19:29;;;;;;;0.40;0.40;;;;;;;8.40;100.00;100069.25;5018269;28;20033;-88
2023/03/28 06:21:55;;;;;;;0.40;0.40;;;;;;;8.57;100.00;100072.63;5035637;28;20434;-90
2023/03/28 06:24:21;;;;;;;0.40;0.40;;;;;;;8.55;100.00;100063.97;5018206;28;20022;-92
2023/03/28 06:26:47;;;;;;;0.40;0.40;;;;;;;8.66;100.00;100076.09;5035385;28;20055;-86
2023/03/28 06:29:14;;;;;;;0.40;0.40;;;;;;;8.73;100.00;100080.56;5034030;28;20034;-86
2023/03/28 06:31:40;;;;;;;0.40;0.40;;;;;;;8.76;100.00;100082.06;5034252;28;20048;-91
2023/03/28 06:34:06;;;;;;;0.40;0.40;;;;;;;8.71;100.00;100069.19;5034183;28;20029;-91
2023/03/28 06:36:31;;;;;;;0.40;0.40;;;;;;;8.74;100.00;100068.81;5033599;28;20100;-91
2023/03/28 06:38:57;;;;;;;0.43;0.43;;;;;;;8.76;100.00;100082.06;5034346;28;20037;-88
2023/03/28 06:41:23;;;;;;;0.50;0.50;;;;;;;8.82;100.00;100085.84;5034683;28;20029;-89
2023/03/28 06:43:48;;;;;;;0.40;0.40;;;;;;;8.84;100.00;100084.66;5018040;28;20064;-85
2023/03/28 06:46:15;;;;;;;0.90;0.90;;;;;;;8.84;100.00;100081.97;5033972;28;20034;-87
2023/03/28 06:48:41;;;;;;;0.45;0.45;;;;;;;8.77;100.00;100063.09;5033450;28;20075;-86
2023/03/28 06:51:07;;;;;;;0.47;0.47;;;;;;;8.88;100.00;100069.03;4985072;28;20060;-85
2023/03/28 06:53:34;;;;;;;0.43;0.43;;;;;;;8.95;100.00;100078.03;5033508;28;20065;-84
2023/03/28 06:56:00;;;;;;;0.68;0.50;;;;;;;8.84;100.00;100052.50;4985204;28;20467;-86
2023/03/28 06:58:29;;;;;;;0.43;0.43;;;;;;;8.96;100.00;100068.94;5017320;28;20036;-85
2023/03/28 07:00:58;;;;;;;0.55;0.55;;;;;;;9.06;100.00;100082.09;5017854;28;20041;-87
2023/03/28 07:03:24;;;;;;;0.85;0.55;;;;;;;9.00;100.00;100073.78;5033753;28;20391;-89
2023/03/28 07:05:50;;;;;;;0.40;0.40;;;;;;;8.98;100.00;100066.94;5000906;28;20033;-87
2023/03/28 07:08:15;;;;;;;0.50;0.50;;;;;;;8.96;100.00;100053.69;5017103;28;20041;-89
2023/03/28 07:10:42;;;;;;;0.90;0.60;;;;;;;9.08;100.00;100062.13;5017030;28;20513;-89
2023/03/28 07:13:08;;;;;;;0.50;0.50;;;;;;;9.06;100.00;100052.59;5033489;28;20042;-90
2023/03/28 07:15:34;;;;;;;1.83;1.02;;;;;;;9.16;100.00;100071.94;5016805;28;20068;-89
2023/03/28 07:18:00;;;;;;;3.10;1.42;;;;;;;9.19;100.00;100072.41;5034748;28;20061;-87
2023/03/28 07:20:26;;;;;;;1.30;1.20;;;;;;;9.20;100.00;100068.69;5021195;28;20028;-84
2023/03/28 07:22:52;;;;;;;3.20;1.88;;;;;;;9.31;100.00;100069.25;5028270;28;20029;-89
2023/03/28 07:25:18;;;;;;;1.05;0.95;;;;;;;9.37;100.00;100068.53;5033662;28;20029;-85
2023/03/28 07:27:46;;;;;;;4.70;1.75;;;;;;;9.36;100.00;100050.75;5032733;28;20037;-91
2023/03/28 07:30:12;;;;;;;2.00;1.38;;;;;;;9.47;100.00;100063.72;5032869;28;20479;-89
2023/03/28 07:32:38;;;;;;;3.58;1.50;;;;;;;9.53;100.00;100064.84;5000510;28;20486;-88
2023/03/28 07:35:05;;;;;;;3.58;1.88;;;;;;;9.60;100.00;100063.88;5035102;28;20037;-85
2023/03/28 07:37:32;;;;;;;1.45;1.17;;;;;;;9.64;100.00;100053.63;5000313;28;20033;-88
2023/03/28 07:39:59;;;;;;;2.40;1.52;;;;;;;9.78;100.00;100055.44;5016154;28;20460;-85
2023/03/28 07:42:25;;;;;;;3.20;1.85;;;;;;;9.95;100.00;100039.97;5033208;28;20388;-88
2023/03/28 07:44:52;;;;;;;1.15;0.88;;;;;;;10.22;100.00;100057.19;5016560;28;20029;-88
2023/03/28 07:47:18;;;;;;;1.60;1.20;;;;;;;10.33;100.00;100045.97;5032786;28;20030;-84
2023/03/28 07:49:44;;;;;;;4.43;1.45;;;;;;;10.36;100.00;100042.06;5016502;28;20048;-87
2023/03/28 07:52:11;;;;;;;1.50;1.17;;;;;;;10.31;100.00;100034.56;5032841;28;20163;-84
2023/03/28 07:54:36;;;;;;;0.50;0.50;;;;;;;10.32;100.00;100038.94;5000212;28;20037;-84
2023/03/28 07:57:05;;;;;;;1.42;0.90;;;;;;;10.29;100.00;100031.28;4999947;28;20083;-84
2023/03/28 07:59:31;;;;;;;0.75;0.70;;;;;;;10.18;100.00;100034.41;5032637;28;20048;-87
2023/03/28 08:01:57;;;;;;;3.35;0.95;;;;;;;10.01;100.00;100027.63;5032659;28;20037;-87
2023/03/28 08:04:22;;;;;;;1.08;0.98;;;;;;;9.90;100.00;100021.72;5032555;28;20040;-85
2023/03/28 08:06:51;;;;;;;2.65;1.10;;;;;;;10.02;100.00;100007.78;5016302;28;20130;-84
2023/03/28 08:09:17;;;;;;;0.60;0.60;;;;;;;10.98;100.00;100003.69;5033118;28;20029;-89
2023/03/28 08:11:43;;;;;;;1.38;1.00;;;;;;;11.93;100.00;100017.41;4989060;28;20033;-85
2023/03/28 08:14:15;;;;;;;1.10;1.00;;;;;;;11.88;100.00;100009.97;5024197;28;20038;-87
2023/03/28 08:16:40;;;;;;;3.15;1.15;;;;;;;13.17;100.00;100013.31;5021625;28;20500;-83
2023/03/28 08:19:06;;;;;;;0.98;0.80;;;;;;;13.19;100.00;100017.47;5036321;28;20079;-90
2023/03/28 08:21:34;;;;;;;1.73;0.70;;;;;;;12.83;100.00;100022.50;5034582;28;20033;-84
2023/03/28 08:24:00;;;;;;;7.10;4.93;;;;;;;12.66;100.00;100024.78;5017093;28;20026;-90
2023/03/28 08:26:27;;;;;;;6.00;3.08;;;;;;;12.71;100.00;100016.91;5016949;28;20041;-89
2023/03/28 08:28:53;;;;;;;10.50;8.00;;;;;;;14.06;100.00;100028.81;5033636;28;20041;-87
2023/03/28 08:31:22;;;;;;;10.10;7.47;;;;;;;15.16;100.00;100005.91;5017026;28;20489;-86
2023/03/28 08:33:51;;;;;;;3.10;2.60;;;;;;;16.94;99.30;100030.03;5002545;28;20029;-91
2023/03/28 08:36:17;;;;;;;4.47;2.80;;;;;;;16.80;100.00;100022.06;5033483;28;20476;-89
2023/03/28 08:38:50;;;;;;;1.35;0.88;;;;;;;15.94;100.00;100026.91;5032250;28;20068;-78
2023/03/28 08:41:46;;;;;;;1.50;0.93;;;;;;;14.72;100.00;100034.84;4986156;28;20045;-83
2023/03/28 08:44:23;;;;;;;1.08;0.70;;;;;;;13.80;100.00;100037.88;5019373;28;20422;-78
2023/03/28 08:46:53;;;;;;;0.60;0.60;;;;;;;13.02;100.00;100029.78;5036014;28;20033;-84
2023/03/28 08:49:19;;;;;;;0.80;0.60;;;;;;;12.62;100.00;100037.03;5035371;28;20057;-83
2023/03/28 08:51:48;;;;;;;0.75;0.65;;;;;;;12.32;100.00;100035.53;5036531;28;20421;-79
2023/03/28 08:54:18;;;;;;;1.67;1.10;;;;;;;12.07;100.00;100019.13;5035328;28;20083;-79
2023/03/28 08:56:52;;;;;;;1.15;0.80;;;;;;;12.00;100.00;100029.03;5018986;28;20030;-79
2023/03/28 08:59:22;;;;;;;0.75;0.60;;;;;;;11.81;100.00;100017.16;5018928;28;20561;-79
2023/03/28 09:01:48;;;;;;;1.10;0.70;;;;;;;11.87;100.00;100024.44;5019138;28;20037;-79
2023/03/28 09:04:34;;;;;;;1.38;0.80;;;;;;;12.12;100.00;100014.97;5035565;28;20029;-79
2023/03/28 09:07:16;;;;;;;1.73;0.60;;;;;;;12.28;100.00;99998.44;5018172;28;20045;-80
2023/03/28 09:10:12;;;;;;;2.35;0.80;;;;;;;12.12;100.00;100015.84;5035109;28;20475;-79
2023/03/28 09:12:44;;;;;;;0.60;0.60;;;;;;;11.90;100.00;100004.34;5035179;28;20079;-79
2023/03/28 09:15:49;;;;;;;2.30;0.70;;;;;;;11.80;100.00;100009.25;5035531;28;20056;-79
2023/03/28 09:18:30;;;;;;;3.63;1.23;;;;;;;11.88;100.00;99995.63;5031422;28;20042;-79
2023/03/28 09:21:01;;;;;;;1.73;0.68;;;;;;;12.21;100.00;100002.97;5036246;28;20040;-79
2023/03/28 09:23:45;;;;;;;3.13;0.93;;;;;;;12.48;100.00;99999.25;5018788;28;20037;-80
2023/03/28 09:26:21;;;;;;;2.65;1.27;;;;;;;12.80;100.00;100001.34;5035270;28;20048;-79
2023/03/28 09:28:58;;;;;;;0.63;0.63;;;;;;;13.23;100.00;99995.44;5034762;28;20048;-77
2023/03/28 09:31:30;;;;;;;5.35;2.53;;;;;;;13.68;100.00;99982.00;5034705;28;20431;-77
2023/03/28 09:33:57;;;;;;;1.33;0.70;;;;;;;13.95;100.00;99988.13;5034998;28;20040;-77
2023/03/28 09:36:26;;;;;;;2.10;0.90;;;;;;;13.74;100.00;99981.19;5002732;28;20034;-77
2023/03/28 09:38:56;;;;;;;4.13;1.85;;;;;;;13.77;100.00;99989.66;5034811;28;20086;-77
2023/03/28 09:41:28;;;;;;;18.85;8.73;;;;;;;13.78;100.00;99998.59;5018084;28;20026;-77
2023/03/28 09:43:56;;;;;;;15.40;5.85;;;;;;;13.57;100.00;99986.22;5002195;28;20069;-77
2023/03/28 09:46:30;;;;;;;3.63;1.17;;;;;;;13.60;100.00;99992.03;5034788;28;20068;-77
2023/03/28 09:48:56;;;;;;;3.03;1.20;;;;;;;13.61;100.00;99993.69;5018406;28;20087;-77
2023/03/28 09:51:22;;;;;;;12.05;3.42;;;;;;;13.81;100.00;99987.34;5033944;28;20029;-78
2023/03/28 09:53:47;;;;;;;26.85;8.18;;;;;;;13.93;100.00;99998.31;5034240;28;20124;-77
2023/03/28 09:56:25;;;;;;;4.47;1.65;;;;;;;13.89;100.00;100006.00;5034095;28;20446;-76
2023/03/28 09:59:00;;;;;;;7.35;3.22;;;;;;;13.89;100.00;100013.31;5001920;28;20037;-77
2023/03/28 10:01:48;;;;;;;4.75;2.33;;;;;;;14.10;100.00;100009.44;5001044;28;20112;-77
2023/03/28 10:04:35;;;;;;;7.47;2.65;;;;;;;13.92;100.00;99978.59;5032630;28;20068;-76
2023/03/28 10:07:09;;;;;;;5.03;1.75;;;;;;;14.30;100.00;100010.16;5016907;28;20045;-77
2023/03/28 10:09:46;;;;;;;1.88;0.93;;;;;;;14.61;100.00;100006.63;5035156;28;20053;-77
2023/03/28 10:12:22;;;;;;;3.10;1.50;;;;;;;14.73;100.00;99998.59;5017261;28;20036;-76
2023/03/28 10:14:47;;;;;;;8.18;2.38;;;;;;;14.82;100.00;100005.41;5017343;28;20030;-76
2023/03/28 10:17:19;;;;;;;15.68;4.30;;;;;;;14.84;100.00;100008.69;5035001;28;20040;-80
2023/03/28 10:19:46;;;;;;;2.08;1.02;;;;;;;14.95;100.00;99993.59;5017543;28;20129;-79
2023/03/28 10:22:24;;;;;;;6.78;2.33;;;;;;;15.38;100.00;99976.50;5033566;28;20463;-84
2023/03/28 10:24:50;;;;;;;9.15;3.80;;;;;;;16.32;100.00;99995.06;5033925;28;20033;-80
2023/03/28 10:27:38;;;;;;;4.80;2.65;;;;;;;16.97;100.00;99989.63;5001497;28;20048;-80
2023/03/28 10:30:14;;;;;;;3.22;1.00;;;;;;;16.98;100.00;99980.41;5033606;28;20033;-80
2023/03/28 10:32:41;;;;;;;1.23;0.90;;;;;;;16.98;100.00;99974.97;5033617;28;20521;-80
2023/03/28 10:35:17;;;;;;;3.13;1.15;;;;;;;17.31;99.08;99996.09;5017410;28;20030;-79
2023/03/28 10:37:45;;;;;;;4.07;0.80;;;;;;;16.67;100.00;99987.84;5033663;28;20407;-82
2023/03/28 10:40:17;;;;;;;5.57;1.23;;;;;;;16.43;100.00;100002.41;4984893;28;20047;-80
2023/03/28 10:42:45;;;;;;;1.95;1.00;;;;;;;16.26;100.00;99989.50;5033730;28;20084;-84
2023/03/28 10:45:32;;;;;;;1.95;1.00;;;;;;;16.09;100.00;99993.09;5016825;28;20057;-81
2023/03/28 10:48:00;;;;;;;3.25;0.60;;;;;;;15.76;100.00;99994.41;5033220;28;20037;-79
2023/03/28 10:50:33;;;;;;;0.77;0.57;;;;;;;15.80;100.00;99980.16;5033249;28;20456;-82
2023/03/28 10:53:17;;;;;;;6.72;2.60;;;;;;;16.29;100.00;99976.56;5033565;28;20042;-84
2023/03/28 10:56:06;;;;;;;3.85;1.30;;;;;;;17.68;95.33;99984.09;5033575;28;20112;-79
2023/03/28 10:58:36;;;;;;;1.13;0.70;;;;;;;17.76;88.57;99987.22;5029860;28;20064;-80
2023/03/28 11:01:24;;;;;;;3.45;0.80;;;;;;;17.06;89.01;99988.19;5000619;28;20041;-79
2023/03/28 11:03:57;;;;;;;1.70;0.70;;;;;;;16.27;88.96;99982.19;5032288;28;20035;-80
2023/03/28 11:06:41;;;;;;;3.63;1.13;;;;;;;15.23;92.12;99973.34;5033218;28;20029;-80
2023/03/28 11:09:16;;;;;;;4.07;1.10;;;;;;;14.79;94.37;99999.59;5032936;28;20029;-81
2023/03/28 11:11:45;;;;;;;2.15;1.00;;;;;;;14.66;96.37;99997.81;5000199;28;20488;-79
2023/03/28 11:14:27;;;;;;;0.93;0.85;;;;;;;14.56;96.63;100011.06;5016933;28;20045;-79
2023/03/28 11:16:56;;;;;;;3.60;1.33;;;;;;;14.57;97.64;100007.28;5016389;28;20033;-80
2023/03/28 11:19:51;;;;;;;3.67;1.30;;;;;;;14.83;98.81;100001.66;5032878;28;20749;-79
2023/03/28 11:22:28;;;;;;;1.48;1.00;;;;;;;15.71;97.58;99991.53;5032518;28;20032;-80
2023/03/28 11:25:12;;;;;;;5.22;1.42;;;;;;;16.56;90.80;99994.06;5033834;28;20036;-80
2023/03/28 11:28:13;;;;;;;4.25;2.08;;;;;;;16.59;89.02;99999.03;5033921;28;20035;-80
2023/03/28 11:30:39;;;;;;;4.82;1.27;;;;;;;18.04;83.31;100001.94;5029576;28;20091;-80
2023/03/28 11:33:42;;;;;;;2.45;1.00;;;;;;;18.49;78.34;100006.53;5032456;28;20476;-79
2023/03/28 11:36:32;;;;;;;9.73;1.40;;;;;;;18.29;79.41;100006.19;5011578;28;20484;-79
2023/03/28 11:39:09;;;;;;;2.90;1.17;;;;;;;18.15;75.16;100002.94;5026182;28;20041;-82